Wetterdaten: Montag, 20.10.2014
Datum Zeit Temp. A. Feuchte A. Luftdruck Regen Wind Richtung Richtung Sonnenschein ET UV Solar Taupunkt Windchill Windben Empfang
20.10.2014 00:00 8,9 C 86 % 1019,6 hPa 0,0 l/m 0,0 km/h (0 Bft) SO 124 0 min 0,000 mm 0,0 UV-I 0 W/m 6,7 C 8,9 C 0,0 km/h (0 Bft) 0,00 %
20.10.2014 00:15 8,8 C 86 % 1019,6 hPa 0,0 l/m 0,0 km/h (0 Bft) S 184 0 min 0,000 mm 0,0 UV-I 0 W/m 6,6 C 8,8 C 0,0 km/h (0 Bft) 0,00 %
20.10.2014 00:30 8,6 C 86 % 1019,6 hPa 0,0 l/m 0,0 km/h (0 Bft) S-SW 207 0 min 0,000 mm 0,0 UV-I 0 W/m 6,4 C 8,6 C 0,0 km/h (0 Bft) 0,00 %
20.10.2014 00:45 8,6 C 86 % 1019,5 hPa 0,0 l/m 0,0 km/h (0 Bft) S-SW 212 0 min 0,000 mm 0,0 UV-I 0 W/m 6,4 C 8,6 C 0,0 km/h (0 Bft) 0,00 %
20.10.2014 01:00 8,6 C 86 % 1019,2 hPa 0,0 l/m 0,0 km/h (0 Bft) S 191 0 min 0,000 mm 0,0 UV-I 0 W/m 6,4 C 8,6 C 0,0 km/h (0 Bft) 0,00 %
20.10.2014 01:15 8,4 C 87 % 1019,1 hPa 0,3 l/m 0,0 km/h (0 Bft) S 181 0 min 0,000 mm 0,0 UV-I 0 W/m 6,4 C 8,4 C 0,0 km/h (0 Bft) 0,00 %
20.10.2014 01:30 8,4 C 87 % 1019,2 hPa 0,0 l/m 0,0 km/h (0 Bft) SW 216 0 min 0,000 mm 0,0 UV-I 0 W/m 6,4 C 8,4 C 0,0 km/h (0 Bft) 0,00 %
20.10.2014 01:45 8,2 C 87 % 1019,2 hPa 0,0 l/m 0,0 km/h (0 Bft) S-SW 197 0 min 0,000 mm 0,0 UV-I 0 W/m 6,2 C 8,2 C 0,0 km/h (0 Bft) 0,00 %
20.10.2014 02:00 8,2 C 87 % 1019,6 hPa 0,0 l/m 0,0 km/h (0 Bft) S 185 0 min 0,000 mm 0,0 UV-I 0 W/m 6,2 C 8,2 C 0,0 km/h (0 Bft) 0,00 %
20.10.2014 02:15 8,2 C 87 % 1019,6 hPa 0,0 l/m 0,0 km/h (0 Bft) S 180 0 min 0,000 mm 0,0 UV-I 0 W/m 6,2 C 8,2 C 0,0 km/h (0 Bft) 0,00 %
20.10.2014 02:30 8,2 C 87 % 1019,6 hPa 0,0 l/m 0,0 km/h (0 Bft) S 186 0 min 0,000 mm 0,0 UV-I 0 W/m 6,2 C 8,2 C 0,0 km/h (0 Bft) 0,00 %
20.10.2014 02:45 8,2 C 87 % 1019,5 hPa 0,0 l/m 0,0 km/h (0 Bft) S 175 0 min 0,000 mm 0,0 UV-I 0 W/m 6,2 C 8,2 C 0,0 km/h (0 Bft) 0,00 %
20.10.2014 03:00 8,2 C 87 % 1019,5 hPa 0,0 l/m 0,0 km/h (0 Bft) S 180 0 min 0,000 mm 0,0 UV-I 0 W/m 6,2 C 8,2 C 0,0 km/h (0 Bft) 0,00 %
20.10.2014 03:15 8,0 C 87 % 1019,7 hPa 0,0 l/m 0,0 km/h (0 Bft) SW 233 0 min 0,000 mm 0,0 UV-I 0 W/m 6,0 C 8,0 C 0,0 km/h (0 Bft) 0,00 %
20.10.2014 03:30 7,7 C 87 % 1019,6 hPa 0,0 l/m 0,0 km/h (0 Bft) S-SW 199 0 min 0,000 mm 0,0 UV-I 0 W/m 5,7 C 7,7 C 0,0 km/h (0 Bft) 0,00 %
20.10.2014 03:45 7,6 C 87 % 1019,7 hPa 0,0 l/m 0,0 km/h (0 Bft) SW 216 0 min 0,000 mm 0,0 UV-I 0 W/m 5,6 C 7,6 C 0,0 km/h (0 Bft) 0,00 %
20.10.2014 04:00 7,7 C 87 % 1019,6 hPa 0,0 l/m 0,0 km/h (0 Bft) S-SW 197 0 min 0,000 mm 0,0 UV-I 0 W/m 5,7 C 7,7 C 0,0 km/h (0 Bft) 0,00 %
20.10.2014 04:15 7,9 C 87 % 1019,7 hPa 0,0 l/m 0,0 km/h (0 Bft) S-SW 200 0 min 0,000 mm 0,0 UV-I 0 W/m 5,9 C 7,9 C 0,0 km/h (0 Bft) 0,00 %
20.10.2014 04:30 8,0 C 87 % 1019,6 hPa 0,0 l/m 0,0 km/h (0 Bft) S 183 0 min 0,000 mm 0,0 UV-I 0 W/m 6,0 C 8,0 C 0,0 km/h (0 Bft) 0,00 %
20.10.2014 04:45 8,0 C 87 % 1019,6 hPa 0,0 l/m 0,0 km/h (0 Bft) S-SO 147 0 min 0,000 mm 0,0 UV-I 0 W/m 6,0 C 8,0 C 0,0 km/h (0 Bft) 0,00 %
20.10.2014 05:00 8,3 C 86 % 1019,5 hPa 0,0 l/m 0,0 km/h (0 Bft) S 172 0 min 0,000 mm 0,0 UV-I 0 W/m 6,1 C 8,3 C 0,0 km/h (0 Bft) 0,00 %
20.10.2014 05:15 8,5 C 86 % 1019,6 hPa 0,0 l/m 0,0 km/h (0 Bft) S 172 0 min 0,000 mm 0,0 UV-I 0 W/m 6,3 C 8,5 C 0,0 km/h (0 Bft) 0,00 %
20.10.2014 05:30 8,6 C 86 % 1019,6 hPa 0,0 l/m 0,0 km/h (0 Bft) S 173 0 min 0,000 mm 0,0 UV-I 0 W/m 6,4 C 8,6 C 0,0 km/h (0 Bft) 0,00 %
20.10.2014 05:45 8,6 C 86 % 1019,5 hPa 0,0 l/m 0,0 km/h (0 Bft) S 172 0 min 0,000 mm 0,0 UV-I 0 W/m 6,4 C 8,6 C 0,0 km/h (0 Bft) 0,00 %
20.10.2014 06:00 9,3 C 86 % 1019,2 hPa 0,0 l/m 0,0 km/h (0 Bft) SW 214 0 min 0,000 mm 0,0 UV-I 0 W/m 7,1 C 9,3 C 0,0 km/h (0 Bft) 0,00 %
20.10.2014 06:15 10,0 C 86 % 1019,0 hPa 0,0 l/m 0,0 km/h (0 Bft) S 176 0 min 0,000 mm 0,0 UV-I 0 W/m 7,8 C 10,0 C 0,0 km/h (0 Bft) 0,00 %
20.10.2014 06:30 10,3 C 85 % 1018,3 hPa 0,0 l/m 0,0 km/h (0 Bft) S 180 0 min 0,000 mm 0,0 UV-I 0 W/m 7,9 C 10,3 C 0,0 km/h (0 Bft) 0,00 %
20.10.2014 06:45 11,5 C 83 % 1018,1 hPa 0,0 l/m 0,7 km/h (0 Bft) NW 312 0 min 0,000 mm 0,0 UV-I 0 W/m 8,7 C 11,5 C 4,0 km/h (1 Bft) 0,00 %
20.10.2014 07:00 13,0 C 73 % 1018,0 hPa 0,0 l/m 0,0 km/h (0 Bft) S 186 0 min 0,000 mm 0,0 UV-I 0 W/m 8,3 C 13,0 C 0,0 km/h (0 Bft) 0,00 %
20.10.2014 07:15 12,9 C 73 % 1018,1 hPa 0,0 l/m 1,4 km/h (1 Bft) W-SW 251 0 min 0,000 mm 0,0 UV-I 0 W/m 8,2 C 12,9 C 4,0 km/h (1 Bft) 0,00 %
20.10.2014 07:30 12,5 C 75 % 1018,5 hPa 0,0 l/m 5,8 km/h (2 Bft) O 83 0 min 0,000 mm 0,0 UV-I 0 W/m 8,2 C 12,5 C 7,9 km/h (2 Bft) 0,00 %
20.10.2014 07:45 10,2 C 80 % 1019,0 hPa 0,0 l/m 0,0 km/h (0 Bft) SO 143 0 min 0,000 mm 0,0 UV-I 0 W/m 6,9 C 10,2 C 0,0 km/h (0 Bft) 0,00 %
20.10.2014 08:00 10,0 C 82 % 1019,2 hPa 0,0 l/m 0,0 km/h (0 Bft) S 173 0 min 0,000 mm 0,0 UV-I 4 W/m 7,1 C 10,0 C 0,0 km/h (0 Bft) 0,00 %
20.10.2014 08:15 10,3 C 81 % 1019,4 hPa 0,0 l/m 0,0 km/h (0 Bft) S 177 0 min 0,000 mm 1,0 UV-I 17 W/m 7,2 C 10,3 C 0,0 km/h (0 Bft) 0,00 %
20.10.2014 08:30 10,6 C 81 % 1019,2 hPa 0,0 l/m 0,0 km/h (0 Bft) S 187 0 min 0,000 mm 1,0 UV-I 25 W/m 7,5 C 10,6 C 0,0 km/h (0 Bft) 0,00 %
20.10.2014 08:45 11,1 C 81 % 1019,0 hPa 0,0 l/m 0,0 km/h (0 Bft) S 177 0 min 0,000 mm 1,0 UV-I 29 W/m 8,0 C 11,1 C 0,0 km/h (0 Bft) 0,00 %
20.10.2014 09:00 11,7 C 79 % 1019,2 hPa 0,0 l/m 0,0 km/h (0 Bft) O-NO 69 0 min 0,000 mm 1,0 UV-I 54 W/m 8,2 C 11,7 C 0,0 km/h (0 Bft) 0,00 %
20.10.2014 09:15 12,4 C 78 % 1019,1 hPa 0,0 l/m 0,0 km/h (0 Bft) O-NO 70 0 min 0,000 mm 1,0 UV-I 61 W/m 8,7 C 12,4 C 0,0 km/h (0 Bft) 0,00 %
20.10.2014 09:30 13,1 C 78 % 1018,9 hPa 0,0 l/m 0,0 km/h (0 Bft) O-NO 70 0 min 0,000 mm 2,0 UV-I 74 W/m 9,4 C 13,1 C 0,0 km/h (0 Bft) 0,00 %
20.10.2014 09:45 14,0 C 72 % 1018,6 hPa 0,0 l/m 0,0 km/h (0 Bft) O-NO 70 0 min 0,000 mm 1,0 UV-I 133 W/m 9,0 C 14,0 C 0,0 km/h (0 Bft) 0,00 %
20.10.2014 10:00 14,2 C 75 % 1018,7 hPa 0,0 l/m 0,0 km/h (0 Bft) S 178 0 min 0,000 mm 2,0 UV-I 86 W/m 9,8 C 14,2 C 0,0 km/h (0 Bft) 0,00 %
20.10.2014 10:15 14,9 C 72 % 1018,4 hPa 0,0 l/m 0,0 km/h (0 Bft) O 97 0 min 0,000 mm 2,0 UV-I 163 W/m 9,9 C 14,9 C 0,0 km/h (0 Bft) 0,00 %
20.10.2014 10:30 15,1 C 71 % 1018,4 hPa 0,0 l/m 0,0 km/h (0 Bft) N 352 0 min 0,000 mm 1,0 UV-I 171 W/m 9,9 C 15,1 C 0,0 km/h (0 Bft) 0,00 %
20.10.2014 10:45 15,3 C 72 % 1018,1 hPa 0,0 l/m 0,0 km/h (0 Bft) N 352 0 min 0,000 mm 1,0 UV-I 73 W/m 10,3 C 15,3 C 0,0 km/h (0 Bft) 0,00 %
20.10.2014 11:00 15,1 C 73 % 1017,8 hPa 0,0 l/m 0,0 km/h (0 Bft) S-SW 212 0 min 0,000 mm 1,0 UV-I 71 W/m 10,3 C 15,1 C 0,0 km/h (0 Bft) 0,00 %
20.10.2014 11:15 15,4 C 75 % 1017,9 hPa 0,0 l/m 0,0 km/h (0 Bft) SW 216 0 min 0,000 mm 1,0 UV-I 105 W/m 11,0 C 15,4 C 0,0 km/h (0 Bft) 0,00 %
20.10.2014 11:30 15,5 C 74 % 1017,9 hPa 0,0 l/m 0,0 km/h (0 Bft) W-SW 251 0 min 0,000 mm 1,0 UV-I 103 W/m 10,9 C 15,5 C 0,0 km/h (0 Bft) 0,00 %
20.10.2014 11:45 15,7 C 73 % 1017,6 hPa 0,0 l/m 1,8 km/h (1 Bft) O 100 0 min 0,000 mm 2,0 UV-I 142 W/m 10,9 C 15,7 C 4,0 km/h (1 Bft) 0,00 %
20.10.2014 12:00 15,0 C 73 % 1017,4 hPa 0,0 l/m 1,4 km/h (1 Bft) O-NO 73 0 min 0,000 mm 2,0 UV-I 203 W/m 10,2 C 15,0 C 4,0 km/h (1 Bft) 0,00 %
20.10.2014 12:15 15,0 C 75 % 1017,3 hPa 0,0 l/m 0,0 km/h (0 Bft) N 354 0 min 0,000 mm 2,0 UV-I 206 W/m 10,6 C 15,0 C 0,0 km/h (0 Bft) 0,00 %
20.10.2014 12:30 15,8 C 71 % 1016,7 hPa 0,0 l/m 0,4 km/h (0 Bft) O 88 0 min 0,000 mm 2,0 UV-I 225 W/m 10,6 C 15,8 C 4,0 km/h (1 Bft) 0,00 %
20.10.2014 12:45 16,2 C 71 % 1016,2 hPa 0,0 l/m 0,0 km/h (0 Bft) O-NO 75 0 min 0,000 mm 2,0 UV-I 205 W/m 10,9 C 16,2 C 0,0 km/h (0 Bft) 0,00 %
20.10.2014 13:00 16,5 C 69 % 1016,3 hPa 0,0 l/m 0,7 km/h (0 Bft) O-NO 67 0 min 0,000 mm 2,0 UV-I 214 W/m 10,8 C 16,5 C 4,0 km/h (1 Bft) 0,00 %
20.10.2014 13:15 17,0 C 68 % 1016,0 hPa 0,0 l/m 0,0 km/h (0 Bft) W-NW 289 0 min 0,000 mm 2,0 UV-I 215 W/m 11,0 C 17,0 C 0,0 km/h (0 Bft) 0,00 %
20.10.2014 13:30 16,9 C 68 % 1015,9 hPa 0,0 l/m 0,7 km/h (0 Bft) N-NW 343 0 min 0,000 mm 2,0 UV-I 216 W/m 11,0 C 16,9 C 4,0 km/h (1 Bft) 0,00 %
20.10.2014 13:45 17,2 C 66 % 1015,2 hPa 0,0 l/m 0,0 km/h (0 Bft) O-NO 73 0 min 0,000 mm 2,0 UV-I 185 W/m 10,8 C 17,2 C 0,0 km/h (0 Bft) 0,00 %
20.10.2014 14:00 17,6 C 64 % 1015,4 hPa 0,0 l/m 0,0 km/h (0 Bft) O 87 0 min 0,000 mm 2,0 UV-I 226 W/m 10,7 C 17,6 C 0,0 km/h (0 Bft) 0,00 %
20.10.2014 14:15 17,8 C 63 % 1015,2 hPa 0,0 l/m 0,0 km/h (0 Bft) O-SO 102 0 min 0,000 mm 2,0 UV-I 235 W/m 10,7 C 17,8 C 0,0 km/h (0 Bft) 0,00 %
20.10.2014 14:30 17,7 C 66 % 1014,7 hPa 0,0 l/m 0,0 km/h (0 Bft) O 94 0 min 0,000 mm 2,0 UV-I 171 W/m 11,3 C 17,7 C 0,0 km/h (0 Bft) 0,00 %
20.10.2014 14:45 17,8 C 64 % 1015,0 hPa 0,0 l/m 0,0 km/h (0 Bft) O 89 0 min 0,000 mm 2,0 UV-I 201 W/m 10,9 C 17,8 C 0,0 km/h (0 Bft) 0,00 %
20.10.2014 15:00 17,9 C 63 % 1014,8 hPa 0,0 l/m 0,0 km/h (0 Bft) NO 37 0 min 0,000 mm 2,0 UV-I 225 W/m 10,8 C 17,9 C 0,0 km/h (0 Bft) 0,00 %
20.10.2014 15:15 17,8 C 65 % 1015,1 hPa 0,0 l/m 0,4 km/h (0 Bft) O 84 0 min 0,000 mm 1,0 UV-I 198 W/m 11,1 C 17,8 C 4,0 km/h (1 Bft) 0,00 %
20.10.2014 15:30 17,6 C 65 % 1015,1 hPa 0,0 l/m 0,0 km/h (0 Bft) O 94 0 min 0,000 mm 1,0 UV-I 99 W/m 10,9 C 17,6 C 0,0 km/h (0 Bft) 0,00 %
20.10.2014 15:45 17,9 C 66 % 1014,7 hPa 0,0 l/m 0,0 km/h (0 Bft) SO 132 0 min 0,000 mm 1,0 UV-I 119 W/m 11,5 C 17,9 C 0,0 km/h (0 Bft) 0,00 %
20.10.2014 16:00 18,0 C 66 % 1014,5 hPa 0,0 l/m 0,0 km/h (0 Bft) SO 132 0 min 0,000 mm 1,0 UV-I 126 W/m 11,6 C 18,0 C 0,0 km/h (0 Bft) 0,00 %
20.10.2014 16:15 17,6 C 70 % 1014,2 hPa 0,0 l/m 0,0 km/h (0 Bft) W-SW 250 0 min 0,000 mm 1,0 UV-I 83 W/m 12,1 C 17,6 C 0,0 km/h (0 Bft) 0,00 %
20.10.2014 16:30 17,8 C 69 % 1013,8 hPa 0,0 l/m 0,0 km/h (0 Bft) W-SW 250 0 min 0,000 mm 1,0 UV-I 127 W/m 12,0 C 17,8 C 0,0 km/h (0 Bft) 0,00 %
20.10.2014 16:45 18,0 C 69 % 1014,2 hPa 0,0 l/m 0,0 km/h (0 Bft) W-SW 250 15 min 0,000 mm 1,0 UV-I 124 W/m 12,2 C 18,0 C 0,0 km/h (0 Bft) 0,00 %
20.10.2014 17:00 17,8 C 70 % 1014,0 hPa 0,0 l/m 0,0 km/h (0 Bft) W-SW 250 0 min 0,000 mm 0,0 UV-I 67 W/m 12,3 C 17,8 C 0,0 km/h (0 Bft) 0,00 %
20.10.2014 17:15 17,8 C 69 % 1013,6 hPa 0,0 l/m 0,0 km/h (0 Bft) W-SW 250 15 min 0,000 mm 0,0 UV-I 131 W/m 12,0 C 17,8 C 0,0 km/h (0 Bft) 0,00 %
20.10.2014 17:30 17,6 C 69 % 1013,6 hPa 0,0 l/m 0,0 km/h (0 Bft) W-SW 250 15 min 0,000 mm 0,0 UV-I 64 W/m 11,8 C 17,6 C 0,0 km/h (0 Bft) 0,00 %
20.10.2014 17:45 17,1 C 73 % 1013,8 hPa 0,0 l/m 0,0 km/h (0 Bft) W-SW 250 0 min 0,000 mm 0,0 UV-I 16 W/m 12,2 C 17,1 C 0,0 km/h (0 Bft) 0,00 %
20.10.2014 18:00 16,6 C 75 % 1013,5 hPa 0,0 l/m 0,0 km/h (0 Bft) W-SW 250 0 min 0,000 mm 0,0 UV-I 0 W/m 12,1 C 16,6 C 0,0 km/h (0 Bft) 0,00 %
20.10.2014 18:15 16,3 C 74 % 1013,6 hPa 0,0 l/m 0,0 km/h (0 Bft) W-SW 250 0 min 0,000 mm 0,0 UV-I 0 W/m 11,7 C 16,3 C 0,0 km/h (0 Bft) 0,00 %
20.10.2014 18:30 15,6 C 78 % 1013,9 hPa 0,0 l/m 0,0 km/h (0 Bft) W-SW 256 0 min 0,000 mm 0,0 UV-I 0 W/m 11,8 C 15,6 C 0,0 km/h (0 Bft) 0,00 %
20.10.2014 18:45 15,6 C 79 % 1013,7 hPa 0,0 l/m 0,0 km/h (0 Bft) O 92 0 min 0,000 mm 0,0 UV-I 0 W/m 12,0 C 15,6 C 0,0 km/h (0 Bft) 0,00 %
20.10.2014 19:00 15,3 C 80 % 1013,8 hPa 0,0 l/m 0,0 km/h (0 Bft) S 176 0 min 0,000 mm 0,0 UV-I 0 W/m 11,9 C 15,3 C 0,0 km/h (0 Bft) 0,00 %
20.10.2014 19:15 14,9 C 81 % 1013,8 hPa 0,0 l/m 0,0 km/h (0 Bft) S 176 0 min 0,000 mm 0,0 UV-I 0 W/m 11,7 C 14,9 C 0,0 km/h (0 Bft) 0,00 %
20.10.2014 19:30 14,7 C 81 % 1014,0 hPa 0,0 l/m 0,0 km/h (0 Bft) S 176 0 min 0,000 mm 0,0 UV-I 0 W/m 11,5 C 14,7 C 0,0 km/h (0 Bft) 0,00 %
20.10.2014 19:45 14,6 C 81 % 1013,9 hPa 0,0 l/m 0,0 km/h (0 Bft) S 176 0 min 0,000 mm 0,0 UV-I 0 W/m 11,4 C 14,6 C 0,0 km/h (0 Bft) 0,00 %
20.10.2014 20:00 14,6 C 81 % 1013,9 hPa 0,0 l/m 0,0 km/h (0 Bft) SW 222 0 min 0,000 mm 0,0 UV-I 0 W/m 11,4 C 14,6 C 0,0 km/h (0 Bft) 0,00 %
20.10.2014 20:15 15,0 C 80 % 1014,2 hPa 0,0 l/m 0,4 km/h (0 Bft) W-SW 250 0 min 0,000 mm 0,0 UV-I 0 W/m 11,6 C 15,0 C 4,0 km/h (1 Bft) 0,00 %
20.10.2014 20:30 15,4 C 79 % 1014,0 hPa 0,0 l/m 0,0 km/h (0 Bft) O-SO 109 0 min 0,000 mm 0,0 UV-I 0 W/m 11,8 C 15,4 C 0,0 km/h (0 Bft) 0,00 %
20.10.2014 20:45 15,6 C 79 % 1014,3 hPa 0,0 l/m 0,4 km/h (0 Bft) O-SO 108 0 min 0,000 mm 0,0 UV-I 0 W/m 12,0 C 15,6 C 4,0 km/h (1 Bft) 0,00 %
20.10.2014 21:00 15,1 C 81 % 1014,2 hPa 0,9 l/m 0,4 km/h (0 Bft) W 264 0 min 0,000 mm 0,0 UV-I 0 W/m 11,9 C 15,1 C 4,0 km/h (1 Bft) 0,00 %
20.10.2014 21:15 14,7 C 82 % 1014,6 hPa 1,2 l/m 2,9 km/h (1 Bft) W-SW 256 0 min 0,000 mm 0,0 UV-I 0 W/m 11,7 C 14,7 C 4,0 km/h (1 Bft) 0,00 %
20.10.2014 21:30 14,4 C 83 % 1014,7 hPa 1,8 l/m 0,0 km/h (0 Bft) SW 232 0 min 0,000 mm 0,0 UV-I 0 W/m 11,5 C 14,4 C 0,0 km/h (0 Bft) 0,00 %
20.10.2014 21:45 14,2 C 84 % 1014,3 hPa 1,2 l/m 0,0 km/h (0 Bft) S-SW 194 0 min 0,000 mm 0,0 UV-I 0 W/m 11,5 C 14,2 C 0,0 km/h (0 Bft) 0,00 %
20.10.2014 22:00 14,1 C 84 % 1014,5 hPa 0,9 l/m 0,0 km/h (0 Bft) S-SW 205 0 min 0,000 mm 0,0 UV-I 0 W/m 11,4 C 14,1 C 0,0 km/h (0 Bft) 0,00 %
20.10.2014 22:15 14,0 C 84 % 1014,1 hPa 0,9 l/m 0,0 km/h (0 Bft) W-SW 252 0 min 0,000 mm 0,0 UV-I 0 W/m 11,3 C 14,0 C 0,0 km/h (0 Bft) 0,00 %
20.10.2014 22:30 13,8 C 84 % 1014,2 hPa 0,0 l/m 0,0 km/h (0 Bft) S 175 0 min 0,000 mm 0,0 UV-I 0 W/m 11,1 C 13,8 C 0,0 km/h (0 Bft) 0,00 %
20.10.2014 22:45 13,8 C 84 % 1014,1 hPa 0,0 l/m 0,0 km/h (0 Bft) W-SW 256 0 min 0,000 mm 0,0 UV-I 0 W/m 11,1 C 13,8 C 0,0 km/h (0 Bft) 0,00 %
20.10.2014 23:00 13,8 C 84 % 1014,0 hPa 0,0 l/m 0,0 km/h (0 Bft) N-NW 344 0 min 0,000 mm 0,0 UV-I 0 W/m 11,1 C 13,8 C 0,0 km/h (0 Bft) 0,00 %
20.10.2014 23:15 13,7 C 84 % 1013,6 hPa 0,0 l/m 0,0 km/h (0 Bft) NW 326 0 min 0,000 mm 0,0 UV-I 0 W/m 11,0 C 13,7 C 0,0 km/h (0 Bft) 0,00 %
20.10.2014 23:30 13,7 C 84 % 1013,5 hPa 0,6 l/m 0,0 km/h (0 Bft) S 176 0 min 0,000 mm 0,0 UV-I 0 W/m 11,0 C 13,7 C 0,0 km/h (0 Bft) 0,00 %
_ Min-Zeit 03:45 14:15 18:00 - 00:00 - - - - - - 03:45 03:45 00:00 00:00
Minimum _ 7,6 C 63 % 1013,5 hPa - 0,0 km/h (0 Bft) - - - - - - 5,6 C 7,6 C 0,0 km/h (0 Bft) 0,00 %
_ Max-Zeit 16:00 01:15 03:15 21:30 07:30 - - 16:45 00:00 09:30 14:15 17:00 16:00 07:30 00:00
Maximum _ 18,0 C 87 % 1019,7 hPa 1,8 l/m 5,8 km/h
O (2 Bft)
- - 15 min 0,000 mm 2,0 UV-I 235 W/m 12,3 C 18,0 C 7,9 km/h
O (2 Bft)
0,00 %
Durchschnitt _ 13,3 C 78 % 1016,8 hPa #7,8 l/m 0,2 km/h (0 Bft) O - #45 min. #0,000 mm 1,5 UV-I 130 W/m 9,4 C 13,3 C 0,6 km/h (0 Bft) 0,00 %